sensor_id;sensor_type;location;lat;lon;timestamp;temperature;humidity
64874;HTU21D;51367;45.204;38.576;2023-08-31T00:01:11;19.76;40.50
64874;HTU21D;51367;45.204;38.576;2023-08-31T00:03:37;19.74;40.51
64874;HTU21D;51367;45.204;38.576;2023-08-31T00:06:04;19.70;40.58
64874;HTU21D;51367;45.204;38.576;2023-08-31T00:08:33;19.66;40.65
64874;HTU21D;51367;45.204;38.576;2023-08-31T00:11:00;19.60;40.75
64874;HTU21D;51367;45.204;38.576;2023-08-31T00:13:27;19.59;40.88
64874;HTU21D;51367;45.204;38.576;2023-08-31T00:15:55;19.57;40.97
64874;HTU21D;51367;45.204;38.576;2023-08-31T00:18:22;19.52;41.02
64874;HTU21D;51367;45.204;38.576;2023-08-31T00:20:48;19.45;41.11
64874;HTU21D;51367;45.204;38.576;2023-08-31T00:23:14;19.39;41.26
64874;HTU21D;51367;45.204;38.576;2023-08-31T00:25:39;19.38;41.47
64874;HTU21D;51367;45.204;38.576;2023-08-31T00:28:06;19.37;41.65
64874;HTU21D;51367;45.204;38.576;2023-08-31T00:30:34;19.36;41.76
64874;HTU21D;51367;45.204;38.576;2023-08-31T00:33:00;19.38;41.83
64874;HTU21D;51367;45.204;38.576;2023-08-31T00:35:28;19.37;41.93
64874;HTU21D;51367;45.204;38.576;2023-08-31T00:37:55;19.37;41.99
64874;HTU21D;51367;45.204;38.576;2023-08-31T00:40:27;19.38;42.04
64874;HTU21D;51367;45.204;38.576;2023-08-31T00:42:56;19.33;41.99
64874;HTU21D;51367;45.204;38.576;2023-08-31T00:45:23;19.30;42.09
64874;HTU21D;51367;45.204;38.576;2023-08-31T00:47:49;19.27;42.20
64874;HTU21D;51367;45.204;38.576;2023-08-31T00:50:15;19.24;42.36
64874;HTU21D;51367;45.204;38.576;2023-08-31T00:52:42;19.22;42.52
64874;HTU21D;51367;45.204;38.576;2023-08-31T00:55:13;19.17;42.64
64874;HTU21D;51367;45.204;38.576;2023-08-31T00:57:39;19.08;42.77
64874;HTU21D;51367;45.204;38.576;2023-08-31T01:00:07;18.98;42.93
64874;HTU21D;51367;45.204;38.576;2023-08-31T01:02:46;18.91;43.08
64874;HTU21D;51367;45.204;38.576;2023-08-31T01:08:07;18.87;43.40
64874;HTU21D;51367;45.204;38.576;2023-08-31T01:10:44;18.87;43.40
64874;HTU21D;51367;45.204;38.576;2023-08-31T01:13:15;18.89;43.45
64874;HTU21D;51367;45.204;38.576;2023-08-31T01:15:46;18.93;43.43
64874;HTU21D;51367;45.204;38.576;2023-08-31T01:18:18;18.93;43.51
64874;HTU21D;51367;45.204;38.576;2023-08-31T01:23:31;18.93;43.61
64874;HTU21D;51367;45.204;38.576;2023-08-31T01:26:00;18.94;43.60
64874;HTU21D;51367;45.204;38.576;2023-08-31T01:28:27;18.94;43.67
64874;HTU21D;51367;45.204;38.576;2023-08-31T01:30:53;18.95;43.69
64874;HTU21D;51367;45.204;38.576;2023-08-31T01:33:19;18.93;43.77
64874;HTU21D;51367;45.204;38.576;2023-08-31T01:35:49;18.94;43.89
64874;HTU21D;51367;45.204;38.576;2023-08-31T01:38:18;18.93;43.93
64874;HTU21D;51367;45.204;38.576;2023-08-31T01:40:54;18.92;43.93
64874;HTU21D;51367;45.204;38.576;2023-08-31T01:43:22;18.92;43.96
64874;HTU21D;51367;45.204;38.576;2023-08-31T01:45:48;18.89;43.99
64874;HTU21D;51367;45.204;38.576;2023-08-31T01:48:15;18.92;44.06
64874;HTU21D;51367;45.204;38.576;2023-08-31T01:50:41;18.87;44.04
64874;HTU21D;51367;45.204;38.576;2023-08-31T01:53:07;18.83;44.08
64874;HTU21D;51367;45.204;38.576;2023-08-31T01:55:33;18.81;44.15
64874;HTU21D;51367;45.204;38.576;2023-08-31T01:57:59;18.81;44.23
64874;HTU21D;51367;45.204;38.576;2023-08-31T02:00:27;18.78;44.24
64874;HTU21D;51367;45.204;38.576;2023-08-31T02:02:55;18.74;44.29
64874;HTU21D;51367;45.204;38.576;2023-08-31T02:05:22;18.70;44.35
64874;HTU21D;51367;45.204;38.576;2023-08-31T02:07:47;18.68;44.42
64874;HTU21D;51367;45.204;38.576;2023-08-31T02:10:13;18.69;44.48
64874;HTU21D;51367;45.204;38.576;2023-08-31T02:12:42;18.65;44.48
64874;HTU21D;51367;45.204;38.576;2023-08-31T02:15:08;18.62;44.54
64874;HTU21D;51367;45.204;38.576;2023-08-31T02:17:36;18.61;44.61
64874;HTU21D;51367;45.204;38.576;2023-08-31T02:20:02;18.59;44.71
64874;HTU21D;51367;45.204;38.576;2023-08-31T02:22:33;18.58;44.78
64874;HTU21D;51367;45.204;38.576;2023-08-31T02:24:59;18.58;44.83
64874;HTU21D;51367;45.204;38.576;2023-08-31T02:27:26;18.58;44.90
64874;HTU21D;51367;45.204;38.576;2023-08-31T02:29:52;18.55;44.94
64874;HTU21D;51367;45.204;38.576;2023-08-31T02:32:19;18.48;45.08
64874;HTU21D;51367;45.204;38.576;2023-08-31T02:34:45;18.42;45.24
64874;HTU21D;51367;45.204;38.576;2023-08-31T02:37:11;18.37;45.38
64874;HTU21D;51367;45.204;38.576;2023-08-31T02:39:37;18.28;45.49
64874;HTU21D;51367;45.204;38.576;2023-08-31T02:42:03;18.24;45.61
64874;HTU21D;51367;45.204;38.576;2023-08-31T02:44:31;18.22;45.70
64874;HTU21D;51367;45.204;38.576;2023-08-31T02:46:57;18.20;45.80
64874;HTU21D;51367;45.204;38.576;2023-08-31T02:49:23;18.23;45.87
64874;HTU21D;51367;45.204;38.576;2023-08-31T02:51:49;18.26;45.83
64874;HTU21D;51367;45.204;38.576;2023-08-31T02:54:15;18.29;45.85
64874;HTU21D;51367;45.204;38.576;2023-08-31T02:56:41;18.32;45.91
64874;HTU21D;51367;45.204;38.576;2023-08-31T02:59:07;18.34;45.93
64874;HTU21D;51367;45.204;38.576;2023-08-31T03:01:34;18.34;45.99
64874;HTU21D;51367;45.204;38.576;2023-08-31T03:04:00;18.32;46.00
64874;HTU21D;51367;45.204;38.576;2023-08-31T03:06:26;18.29;46.11
64874;HTU21D;51367;45.204;38.576;2023-08-31T03:08:52;18.30;46.18
64874;HTU21D;51367;45.204;38.576;2023-08-31T03:11:18;18.35;46.20
64874;HTU21D;51367;45.204;38.576;2023-08-31T03:13:44;18.37;46.22
64874;HTU21D;51367;45.204;38.576;2023-08-31T03:16:11;18.41;46.27
64874;HTU21D;51367;45.204;38.576;2023-08-31T03:18:37;18.47;46.29
64874;HTU21D;51367;45.204;38.576;2023-08-31T03:21:03;18.52;46.31
64874;HTU21D;51367;45.204;38.576;2023-08-31T03:23:29;18.58;46.36
64874;HTU21D;51367;45.204;38.576;2023-08-31T03:25:56;18.66;46.34
64874;HTU21D;51367;45.204;38.576;2023-08-31T03:28:25;18.67;46.35
64874;HTU21D;51367;45.204;38.576;2023-08-31T03:30:58;18.74;46.60
64874;HTU21D;51367;45.204;38.576;2023-08-31T03:33:24;18.81;46.57
64874;HTU21D;51367;45.204;38.576;2023-08-31T03:35:50;18.96;46.77
64874;HTU21D;51367;45.204;38.576;2023-08-31T03:38:16;19.13;47.08
64874;HTU21D;51367;45.204;38.576;2023-08-31T03:40:53;19.36;47.48
64874;HTU21D;51367;45.204;38.576;2023-08-31T03:43:19;19.70;47.45
64874;HTU21D;51367;45.204;38.576;2023-08-31T03:45:45;20.11;47.26
64874;HTU21D;51367;45.204;38.576;2023-08-31T03:48:11;20.57;46.83
64874;HTU21D;51367;45.204;38.576;2023-08-31T03:50:37;21.04;46.19
64874;HTU21D;51367;45.204;38.576;2023-08-31T03:53:05;21.44;45.51
64874;HTU21D;51367;45.204;38.576;2023-08-31T03:55:31;21.70;44.95
64874;HTU21D;51367;45.204;38.576;2023-08-31T03:57:56;21.90;44.62
64874;HTU21D;51367;45.204;38.576;2023-08-31T04:00:24;22.01;44.47
64874;HTU21D;51367;45.204;38.576;2023-08-31T04:02:49;22.07;44.45
64874;HTU21D;51367;45.204;38.576;2023-08-31T04:05:20;22.25;44.32
64874;HTU21D;51367;45.204;38.576;2023-08-31T04:07:46;22.44;44.13
64874;HTU21D;51367;45.204;38.576;2023-08-31T04:10:12;22.63;43.94
64874;HTU21D;51367;45.204;38.576;2023-08-31T04:12:38;22.80;43.74
64874;HTU21D;51367;45.204;38.576;2023-08-31T04:15:05;22.98;43.56
64874;HTU21D;51367;45.204;38.576;2023-08-31T04:17:32;23.08;43.52
64874;HTU21D;51367;45.204;38.576;2023-08-31T04:19:58;23.13;43.58
64874;HTU21D;51367;45.204;38.576;2023-08-31T04:22:24;23.13;43.66
64874;HTU21D;51367;45.204;38.576;2023-08-31T04:24:49;23.14;43.90
64874;HTU21D;51367;45.204;38.576;2023-08-31T04:27:15;23.13;43.77
64874;HTU21D;51367;45.204;38.576;2023-08-31T04:29:41;23.12;43.90
64874;HTU21D;51367;45.204;38.576;2023-08-31T04:32:07;23.10;44.27
64874;HTU21D;51367;45.204;38.576;2023-08-31T04:34:33;23.14;44.25
64874;HTU21D;51367;45.204;38.576;2023-08-31T04:36:59;23.27;44.28
64874;HTU21D;51367;45.204;38.576;2023-08-31T04:39:25;23.47;44.06
64874;HTU21D;51367;45.204;38.576;2023-08-31T04:41:52;23.64;43.85
64874;HTU21D;51367;45.204;38.576;2023-08-31T04:44:18;23.73;43.70
64874;HTU21D;51367;45.204;38.576;2023-08-31T04:46:44;23.80;43.74
64874;HTU21D;51367;45.204;38.576;2023-08-31T04:49:09;23.81;43.80
64874;HTU21D;51367;45.204;38.576;2023-08-31T04:51:35;23.81;43.89
64874;HTU21D;51367;45.204;38.576;2023-08-31T04:54:05;23.89;43.89
64874;HTU21D;51367;45.204;38.576;2023-08-31T04:56:32;23.95;43.87
64874;HTU21D;51367;45.204;38.576;2023-08-31T04:58:59;24.00;43.84
64874;HTU21D;51367;45.204;38.576;2023-08-31T05:01:25;24.08;43.80
64874;HTU21D;51367;45.204;38.576;2023-08-31T05:03:51;24.13;43.79
64874;HTU21D;51367;45.204;38.576;2023-08-31T05:06:17;24.19;43.82
64874;HTU21D;51367;45.204;38.576;2023-08-31T05:08:43;24.25;43.80
64874;HTU21D;51367;45.204;38.576;2023-08-31T05:11:09;24.29;43.84
64874;HTU21D;51367;45.204;38.576;2023-08-31T05:13:35;24.35;43.86
64874;HTU21D;51367;45.204;38.576;2023-08-31T05:16:01;24.39;43.92
64874;HTU21D;51367;45.204;38.576;2023-08-31T05:18:28;24.46;43.96
64874;HTU21D;51367;45.204;38.576;2023-08-31T05:20:54;24.53;43.97
64874;HTU21D;51367;45.204;38.576;2023-08-31T05:23:20;24.59;44.03
64874;HTU21D;51367;45.204;38.576;2023-08-31T05:25:46;24.70;44.04
64874;HTU21D;51367;45.204;38.576;2023-08-31T05:28:12;24.84;44.03
64874;HTU21D;51367;45.204;38.576;2023-08-31T05:30:47;24.93;44.13
64874;HTU21D;51367;45.204;38.576;2023-08-31T05:33:14;25.08;44.01
64874;HTU21D;51367;45.204;38.576;2023-08-31T05:35:40;25.21;44.03
64874;HTU21D;51367;45.204;38.576;2023-08-31T05:38:06;25.36;44.21
64874;HTU21D;51367;45.204;38.576;2023-08-31T05:40:32;25.53;44.42
64874;HTU21D;51367;45.204;38.576;2023-08-31T05:42:58;25.79;44.42
64874;HTU21D;51367;45.204;38.576;2023-08-31T05:45:24;26.07;44.22
64874;HTU21D;51367;45.204;38.576;2023-08-31T05:47:50;26.28;44.16
64874;HTU21D;51367;45.204;38.576;2023-08-31T05:50:16;26.51;44.19
64874;HTU21D;51367;45.204;38.576;2023-08-31T05:52:41;26.79;43.87
64874;HTU21D;51367;45.204;38.576;2023-08-31T05:55:10;27.02;43.39
64874;HTU21D;51367;45.204;38.576;2023-08-31T05:57:36;27.14;43.11
64874;HTU21D;51367;45.204;38.576;2023-08-31T06:00:04;27.16;43.19
64874;HTU21D;51367;45.204;38.576;2023-08-31T06:02:38;27.22;43.37
64874;HTU21D;51367;45.204;38.576;2023-08-31T06:05:04;27.31;43.80
64874;HTU21D;51367;45.204;38.576;2023-08-31T06:07:31;27.49;44.24
64874;HTU21D;51367;45.204;38.576;2023-08-31T06:09:57;27.86;43.99
64874;HTU21D;51367;45.204;38.576;2023-08-31T06:12:23;28.27;43.26
64874;HTU21D;51367;45.204;38.576;2023-08-31T06:14:49;28.54;42.75
64874;HTU21D;51367;45.204;38.576;2023-08-31T06:17:15;28.76;42.45
64874;HTU21D;51367;45.204;38.576;2023-08-31T06:19:41;28.90;42.29
64874;HTU21D;51367;45.204;38.576;2023-08-31T06:22:08;29.01;42.16
64874;HTU21D;51367;45.204;38.576;2023-08-31T06:24:34;29.12;42.07
64874;HTU21D;51367;45.204;38.576;2023-08-31T06:27:01;29.24;41.92
64874;HTU21D;51367;45.204;38.576;2023-08-31T06:29:27;29.37;41.73
64874;HTU21D;51367;45.204;38.576;2023-08-31T06:31:52;29.51;41.43
64874;HTU21D;51367;45.204;38.576;2023-08-31T06:34:18;29.71;41.05
64874;HTU21D;51367;45.204;38.576;2023-08-31T06:36:44;29.94;40.78
64874;HTU21D;51367;45.204;38.576;2023-08-31T06:39:10;30.17;40.42
64874;HTU21D;51367;45.204;38.576;2023-08-31T06:41:36;30.30;40.23
64874;HTU21D;51367;45.204;38.576;2023-08-31T06:44:02;30.49;39.88
64874;HTU21D;51367;45.204;38.576;2023-08-31T06:46:30;30.70;39.44
64874;HTU21D;51367;45.204;38.576;2023-08-31T06:48:59;30.92;39.08
64874;HTU21D;51367;45.204;38.576;2023-08-31T06:51:25;31.09;38.82
64874;HTU21D;51367;45.204;38.576;2023-08-31T06:53:51;31.29;38.61
64874;HTU21D;51367;45.204;38.576;2023-08-31T06:56:17;31.48;38.31
64874;HTU21D;51367;45.204;38.576;2023-08-31T06:58:43;31.58;37.94
64874;HTU21D;51367;45.204;38.576;2023-08-31T07:01:09;31.60;37.77
64874;HTU21D;51367;45.204;38.576;2023-08-31T07:03:35;31.65;37.79
64874;HTU21D;51367;45.204;38.576;2023-08-31T07:06:01;31.78;37.94
64874;HTU21D;51367;45.204;38.576;2023-08-31T07:08:28;32.00;38.09
64874;HTU21D;51367;45.204;38.576;2023-08-31T07:10:55;32.23;38.21
64874;HTU21D;51367;45.204;38.576;2023-08-31T07:13:21;32.46;38.33
64874;HTU21D;51367;45.204;38.576;2023-08-31T07:15:47;32.78;38.35
64874;HTU21D;51367;45.204;38.576;2023-08-31T07:18:14;33.16;38.05
64874;HTU21D;51367;45.204;38.576;2023-08-31T07:20:40;33.53;37.83
64874;HTU21D;51367;45.204;38.576;2023-08-31T07:23:06;33.99;37.45
64874;HTU21D;51367;45.204;38.576;2023-08-31T07:25:32;34.51;36.66
64874;HTU21D;51367;45.204;38.576;2023-08-31T07:27:57;34.95;35.85
64874;HTU21D;51367;45.204;38.576;2023-08-31T07:30:23;35.24;34.76
64874;HTU21D;51367;45.204;38.576;2023-08-31T07:32:49;35.36;34.13
64874;HTU21D;51367;45.204;38.576;2023-08-31T07:35:15;35.42;33.76
64874;HTU21D;51367;45.204;38.576;2023-08-31T07:37:41;35.43;33.50
64874;HTU21D;51367;45.204;38.576;2023-08-31T07:40:08;35.40;33.22
64874;HTU21D;51367;45.204;38.576;2023-08-31T07:42:35;35.33;33.02
64874;HTU21D;51367;45.204;38.576;2023-08-31T07:45:01;35.29;33.12
64874;HTU21D;51367;45.204;38.576;2023-08-31T07:47:27;35.38;33.26
64874;HTU21D;51367;45.204;38.576;2023-08-31T07:49:53;35.62;33.05
64874;HTU21D;51367;45.204;38.576;2023-08-31T07:52:19;35.79;32.54
64874;HTU21D;51367;45.204;38.576;2023-08-31T07:54:45;35.92;32.31
64874;HTU21D;51367;45.204;38.576;2023-08-31T07:57:11;36.04;31.99
64874;HTU21D;51367;45.204;38.576;2023-08-31T07:59:37;36.15;31.58
64874;HTU21D;51367;45.204;38.576;2023-08-31T08:02:05;36.14;31.40
64874;HTU21D;51367;45.204;38.576;2023-08-31T08:04:31;36.11;31.22
64874;HTU21D;51367;45.204;38.576;2023-08-31T08:06:58;36.12;31.25
64874;HTU21D;51367;45.204;38.576;2023-08-31T08:09:24;36.21;31.07
64874;HTU21D;51367;45.204;38.576;2023-08-31T08:11:49;36.21;31.00
64874;HTU21D;51367;45.204;38.576;2023-08-31T08:14:16;36.27;31.15
64874;HTU21D;51367;45.204;38.576;2023-08-31T08:16:42;36.43;31.03
64874;HTU21D;51367;45.204;38.576;2023-08-31T08:19:08;36.53;30.82
64874;HTU21D;51367;45.204;38.576;2023-08-31T08:21:34;36.41;30.74
64874;HTU21D;51367;45.204;38.576;2023-08-31T08:24:00;36.25;31.11
64874;HTU21D;51367;45.204;38.576;2023-08-31T08:26:26;36.13;31.45
64874;HTU21D;51367;45.204;38.576;2023-08-31T08:28:52;36.12;31.63
64874;HTU21D;51367;45.204;38.576;2023-08-31T08:31:18;36.16;31.68
64874;HTU21D;51367;45.204;38.576;2023-08-31T08:33:44;36.16;31.64
64874;HTU21D;51367;45.204;38.576;2023-08-31T08:36:09;35.92;31.89
64874;HTU21D;51367;45.204;38.576;2023-08-31T08:38:35;35.78;32.29
64874;HTU21D;51367;45.204;38.576;2023-08-31T08:41:05;35.74;32.52
64874;HTU21D;51367;45.204;38.576;2023-08-31T08:43:33;35.64;32.61
64874;HTU21D;51367;45.204;38.576;2023-08-31T08:46:05;35.56;32.84
64874;HTU21D;51367;45.204;38.576;2023-08-31T08:48:34;35.55;33.07
64874;HTU21D;51367;45.204;38.576;2023-08-31T08:51:05;35.59;33.25
64874;HTU21D;51367;45.204;38.576;2023-08-31T08:53:31;35.63;33.38
64874;HTU21D;51367;45.204;38.576;2023-08-31T08:55:58;35.60;33.63
64874;HTU21D;51367;45.204;38.576;2023-08-31T08:58:24;35.54;33.92
64874;HTU21D;51367;45.204;38.576;2023-08-31T09:00:50;35.52;34.26
64874;HTU21D;51367;45.204;38.576;2023-08-31T09:03:17;35.51;34.52
64874;HTU21D;51367;45.204;38.576;2023-08-31T09:05:43;35.47;34.65
64874;HTU21D;51367;45.204;38.576;2023-08-31T09:08:10;35.43;35.05
64874;HTU21D;51367;45.204;38.576;2023-08-31T09:10:40;35.39;35.29
64874;HTU21D;51367;45.204;38.576;2023-08-31T09:13:11;35.34;35.40
64874;HTU21D;51367;45.204;38.576;2023-08-31T09:15:45;35.28;35.61
64874;HTU21D;51367;45.204;38.576;2023-08-31T09:18:23;35.30;35.67
64874;HTU21D;51367;45.204;38.576;2023-08-31T09:20:50;35.38;35.66
64874;HTU21D;51367;45.204;38.576;2023-08-31T09:23:17;35.42;35.71
64874;HTU21D;51367;45.204;38.576;2023-08-31T09:25:48;35.49;35.78
64874;HTU21D;51367;45.204;38.576;2023-08-31T09:28:15;35.55;35.71
64874;HTU21D;51367;45.204;38.576;2023-08-31T09:30:42;35.55;35.60
64874;HTU21D;51367;45.204;38.576;2023-08-31T09:33:09;35.39;35.79
64874;HTU21D;51367;45.204;38.576;2023-08-31T09:35:39;35.36;35.95
64874;HTU21D;51367;45.204;38.576;2023-08-31T09:38:08;35.37;35.95
64874;HTU21D;51367;45.204;38.576;2023-08-31T09:40:36;35.43;36.09
64874;HTU21D;51367;45.204;38.576;2023-08-31T09:43:03;35.56;36.08
64874;HTU21D;51367;45.204;38.576;2023-08-31T09:45:30;35.69;35.96
64874;HTU21D;51367;45.204;38.576;2023-08-31T09:48:00;35.79;35.86
64874;HTU21D;51367;45.204;38.576;2023-08-31T09:50:31;35.85;35.75
64874;HTU21D;51367;45.204;38.576;2023-08-31T09:53:04;35.89;35.71
64874;HTU21D;51367;45.204;38.576;2023-08-31T09:55:32;35.95;35.74
64874;HTU21D;51367;45.204;38.576;2023-08-31T09:58:00;36.03;35.78
64874;HTU21D;51367;45.204;38.576;2023-08-31T10:00:27;36.12;35.74
64874;HTU21D;51367;45.204;38.576;2023-08-31T10:03:00;36.14;35.59
64874;HTU21D;51367;45.204;38.576;2023-08-31T10:05:27;36.04;35.66
64874;HTU21D;51367;45.204;38.576;2023-08-31T10:07:54;36.02;35.53
64874;HTU21D;51367;45.204;38.576;2023-08-31T10:10:20;35.93;35.60
64874;HTU21D;51367;45.204;38.576;2023-08-31T10:12:49;35.92;35.55
64874;HTU21D;51367;45.204;38.576;2023-08-31T10:15:16;35.92;35.54
64874;HTU21D;51367;45.204;38.576;2023-08-31T10:17:42;35.96;35.45
64874;HTU21D;51367;45.204;38.576;2023-08-31T10:20:09;35.96;35.50
64874;HTU21D;51367;45.204;38.576;2023-08-31T10:22:36;36.00;35.46
64874;HTU21D;51367;45.204;38.576;2023-08-31T10:25:04;36.02;35.33
64874;HTU21D;51367;45.204;38.576;2023-08-31T10:27:38;35.98;35.33
64874;HTU21D;51367;45.204;38.576;2023-08-31T10:38:28;36.06;35.31
64874;HTU21D;51367;45.204;38.576;2023-08-31T10:43:48;36.26;35.35
64874;HTU21D;51367;45.204;38.576;2023-08-31T10:48:51;36.49;35.09
64874;HTU21D;51367;45.204;38.576;2023-08-31T10:51:18;36.62;34.98
64874;HTU21D;51367;45.204;38.576;2023-08-31T10:53:46;36.74;34.95
64874;HTU21D;51367;45.204;38.576;2023-08-31T10:56:14;36.83;34.84
64874;HTU21D;51367;45.204;38.576;2023-08-31T10:58:40;36.92;34.69
64874;HTU21D;51367;45.204;38.576;2023-08-31T11:01:06;36.92;34.71
64874;HTU21D;51367;45.204;38.576;2023-08-31T11:03:32;36.97;34.65
64874;HTU21D;51367;45.204;38.576;2023-08-31T11:05:58;37.00;34.62
64874;HTU21D;51367;45.204;38.576;2023-08-31T11:08:25;37.05;34.52
64874;HTU21D;51367;45.204;38.576;2023-08-31T11:10:52;37.10;34.38
64874;HTU21D;51367;45.204;38.576;2023-08-31T11:13:23;37.11;34.28
64874;HTU21D;51367;45.204;38.576;2023-08-31T11:15:49;37.12;34.31
64874;HTU21D;51367;45.204;38.576;2023-08-31T11:18:15;37.16;34.31
64874;HTU21D;51367;45.204;38.576;2023-08-31T11:20:43;37.23;34.30
64874;HTU21D;51367;45.204;38.576;2023-08-31T11:23:10;37.28;34.12
64874;HTU21D;51367;45.204;38.576;2023-08-31T11:25:36;37.13;34.12
64874;HTU21D;51367;45.204;38.576;2023-08-31T11:28:05;36.97;34.28
64874;HTU21D;51367;45.204;38.576;2023-08-31T11:30:32;36.92;34.44
64874;HTU21D;51367;45.204;38.576;2023-08-31T11:33:16;36.93;34.43
64874;HTU21D;51367;45.204;38.576;2023-08-31T11:35:43;36.96;34.34
64874;HTU21D;51367;45.204;38.576;2023-08-31T11:38:10;36.96;34.30
64874;HTU21D;51367;45.204;38.576;2023-08-31T11:40:36;36.95;34.35
64874;HTU21D;51367;45.204;38.576;2023-08-31T11:43:04;37.00;34.38
64874;HTU21D;51367;45.204;38.576;2023-08-31T11:45:31;37.12;34.27
64874;HTU21D;51367;45.204;38.576;2023-08-31T11:47:57;37.20;34.30
64874;HTU21D;51367;45.204;38.576;2023-08-31T11:50:24;37.32;34.16
64874;HTU21D;51367;45.204;38.576;2023-08-31T11:52:51;37.43;34.04
64874;HTU21D;51367;45.204;38.576;2023-08-31T11:55:19;37.55;33.84
64874;HTU21D;51367;45.204;38.576;2023-08-31T11:57:53;37.64;33.74
64874;HTU21D;51367;45.204;38.576;2023-08-31T12:00:22;37.72;33.67
64874;HTU21D;51367;45.204;38.576;2023-08-31T12:03:01;37.80;33.56
64874;HTU21D;51367;45.204;38.576;2023-08-31T12:05:27;37.84;33.25
64874;HTU21D;51367;45.204;38.576;2023-08-31T12:07:55;37.80;33.27
64874;HTU21D;51367;45.204;38.576;2023-08-31T12:10:21;37.81;33.23
64874;HTU21D;51367;45.204;38.576;2023-08-31T12:12:47;37.85;33.37
64874;HTU21D;51367;45.204;38.576;2023-08-31T12:15:13;37.86;33.25
64874;HTU21D;51367;45.204;38.576;2023-08-31T12:17:40;37.89;33.33
64874;HTU21D;51367;45.204;38.576;2023-08-31T12:20:09;37.96;33.23
64874;HTU21D;51367;45.204;38.576;2023-08-31T12:22:35;37.95;33.05
64874;HTU21D;51367;45.204;38.576;2023-08-31T12:25:01;37.92;33.12
64874;HTU21D;51367;45.204;38.576;2023-08-31T12:27:27;37.93;33.12
64874;HTU21D;51367;45.204;38.576;2023-08-31T12:29:53;38.00;33.03
64874;HTU21D;51367;45.204;38.576;2023-08-31T12:32:19;38.08;32.93
64874;HTU21D;51367;45.204;38.576;2023-08-31T12:34:45;38.14;32.84
64874;HTU21D;51367;45.204;38.576;2023-08-31T12:37:12;38.17;32.61
64874;HTU21D;51367;45.204;38.576;2023-08-31T12:39:40;38.18;32.41
64874;HTU21D;51367;45.204;38.576;2023-08-31T12:42:07;38.17;32.54
64874;HTU21D;51367;45.204;38.576;2023-08-31T12:44:33;38.17;32.54
64874;HTU21D;51367;45.204;38.576;2023-08-31T12:46:59;38.14;32.48
64874;HTU21D;51367;45.204;38.576;2023-08-31T12:49:25;38.10;32.52
64874;HTU21D;51367;45.204;38.576;2023-08-31T12:51:51;38.07;32.42
64874;HTU21D;51367;45.204;38.576;2023-08-31T12:54:17;38.02;32.44
64874;HTU21D;51367;45.204;38.576;2023-08-31T12:56:43;38.02;32.48
64874;HTU21D;51367;45.204;38.576;2023-08-31T12:59:09;38.03;32.36
64874;HTU21D;51367;45.204;38.576;2023-08-31T13:01:35;38.01;32.40
64874;HTU21D;51367;45.204;38.576;2023-08-31T13:04:01;38.00;32.46
64874;HTU21D;51367;45.204;38.576;2023-08-31T13:06:27;38.01;32.35
64874;HTU21D;51367;45.204;38.576;2023-08-31T13:08:54;37.97;32.34
64874;HTU21D;51367;45.204;38.576;2023-08-31T13:11:20;37.87;32.24
64874;HTU21D;51367;45.204;38.576;2023-08-31T13:13:49;37.67;32.27
64874;HTU21D;51367;45.204;38.576;2023-08-31T13:16:19;37.49;32.40
64874;HTU21D;51367;45.204;38.576;2023-08-31T13:18:45;37.42;32.51
64874;HTU21D;51367;45.204;38.576;2023-08-31T13:21:10;37.43;32.57
64874;HTU21D;51367;45.204;38.576;2023-08-31T13:23:36;37.48;32.57
64874;HTU21D;51367;45.204;38.576;2023-08-31T13:26:02;37.56;32.38
64874;HTU21D;51367;45.204;38.576;2023-08-31T13:28:29;37.57;32.38
64874;HTU21D;51367;45.204;38.576;2023-08-31T13:30:58;37.63;32.38
64874;HTU21D;51367;45.204;38.576;2023-08-31T13:33:26;37.67;32.30
64874;HTU21D;51367;45.204;38.576;2023-08-31T13:35:59;37.67;32.35
64874;HTU21D;51367;45.204;38.576;2023-08-31T13:38:25;37.60;32.47
64874;HTU21D;51367;45.204;38.576;2023-08-31T13:40:57;37.54;32.50
64874;HTU21D;51367;45.204;38.576;2023-08-31T13:43:24;37.40;32.63
64874;HTU21D;51367;45.204;38.576;2023-08-31T13:45:50;37.35;32.80
64874;HTU21D;51367;45.204;38.576;2023-08-31T13:48:16;37.33;32.90
64874;HTU21D;51367;45.204;38.576;2023-08-31T13:50:42;37.34;32.85
64874;HTU21D;51367;45.204;38.576;2023-08-31T13:53:09;37.37;32.74
64874;HTU21D;51367;45.204;38.576;2023-08-31T13:55:35;37.37;32.72
64874;HTU21D;51367;45.204;38.576;2023-08-31T13:58:07;37.34;32.62
64874;HTU21D;51367;45.204;38.576;2023-08-31T14:00:34;37.26;32.70
64874;HTU21D;51367;45.204;38.576;2023-08-31T14:03:00;37.20;32.81
64874;HTU21D;51367;45.204;38.576;2023-08-31T14:05:29;37.15;32.85
64874;HTU21D;51367;45.204;38.576;2023-08-31T14:07:56;37.14;32.86
64874;HTU21D;51367;45.204;38.576;2023-08-31T14:10:26;37.12;32.90
64874;HTU21D;51367;45.204;38.576;2023-08-31T14:12:52;37.12;32.97
64874;HTU21D;51367;45.204;38.576;2023-08-31T14:15:19;37.14;32.95
64874;HTU21D;51367;45.204;38.576;2023-08-31T14:17:45;37.10;33.00
64874;HTU21D;51367;45.204;38.576;2023-08-31T14:20:11;37.05;32.99
64874;HTU21D;51367;45.204;38.576;2023-08-31T14:22:37;37.02;32.93
64874;HTU21D;51367;45.204;38.576;2023-08-31T14:25:10;36.97;32.98
64874;HTU21D;51367;45.204;38.576;2023-08-31T14:27:36;36.88;33.03
64874;HTU21D;51367;45.204;38.576;2023-08-31T14:30:02;36.82;33.11
64874;HTU21D;51367;45.204;38.576;2023-08-31T14:32:28;36.77;33.18
64874;HTU21D;51367;45.204;38.576;2023-08-31T14:34:54;36.75;33.12
64874;HTU21D;51367;45.204;38.576;2023-08-31T14:37:21;36.72;33.13
64874;HTU21D;51367;45.204;38.576;2023-08-31T14:39:47;36.66;33.21
64874;HTU21D;51367;45.204;38.576;2023-08-31T14:42:13;36.60;33.24
64874;HTU21D;51367;45.204;38.576;2023-08-31T14:44:40;36.52;33.30
64874;HTU21D;51367;45.204;38.576;2023-08-31T14:47:06;36.41;33.46
64874;HTU21D;51367;45.204;38.576;2023-08-31T14:49:32;36.33;33.55
64874;HTU21D;51367;45.204;38.576;2023-08-31T14:51:59;36.27;33.57
64874;HTU21D;51367;45.204;38.576;2023-08-31T14:54:31;36.18;33.73
64874;HTU21D;51367;45.204;38.576;2023-08-31T14:56:57;36.09;33.84
64874;HTU21D;51367;45.204;38.576;2023-08-31T14:59:23;36.04;33.86
64874;HTU21D;51367;45.204;38.576;2023-08-31T15:01:50;35.98;33.95
64874;HTU21D;51367;45.204;38.576;2023-08-31T15:04:16;35.90;33.98
64874;HTU21D;51367;45.204;38.576;2023-08-31T15:06:42;35.83;34.00
64874;HTU21D;51367;45.204;38.576;2023-08-31T15:09:08;35.77;34.07
64874;HTU21D;51367;45.204;38.576;2023-08-31T15:11:34;35.68;34.17
64874;HTU21D;51367;45.204;38.576;2023-08-31T15:14:02;35.59;34.27
64874;HTU21D;51367;45.204;38.576;2023-08-31T15:16:30;35.50;34.39
64874;HTU21D;51367;45.204;38.576;2023-08-31T15:18:57;35.39;34.53
64874;HTU21D;51367;45.204;38.576;2023-08-31T15:21:23;35.25;34.68